sensor_id;sensor_type;location;lat;lon;timestamp;temperature;humidity
25504;DHT22;13410;52.114;5.718;2022-09-12T00:01:24;18.60;99.90
25504;DHT22;13410;52.114;5.718;2022-09-12T00:03:58;18.50;99.90
25504;DHT22;13410;52.114;5.718;2022-09-12T00:06:30;18.50;99.90
25504;DHT22;13410;52.114;5.718;2022-09-12T00:08:58;18.60;99.90
25504;DHT22;13410;52.114;5.718;2022-09-12T00:11:25;18.40;99.90
25504;DHT22;13410;52.114;5.718;2022-09-12T00:13:54;18.80;99.90
25504;DHT22;13410;52.114;5.718;2022-09-12T00:16:22;18.50;99.90
25504;DHT22;13410;52.114;5.718;2022-09-12T00:18:48;18.50;99.90
25504;DHT22;13410;52.114;5.718;2022-09-12T00:21:15;18.50;99.90
25504;DHT22;13410;52.114;5.718;2022-09-12T00:23:41;18.50;99.90
25504;DHT22;13410;52.114;5.718;2022-09-12T00:26:07;18.40;99.90
25504;DHT22;13410;52.114;5.718;2022-09-12T00:28:34;18.20;99.90
25504;DHT22;13410;52.114;5.718;2022-09-12T00:31:07;18.10;99.90
25504;DHT22;13410;52.114;5.718;2022-09-12T00:33:33;18.30;99.90
25504;DHT22;13410;52.114;5.718;2022-09-12T00:35:59;18.10;99.90
25504;DHT22;13410;52.114;5.718;2022-09-12T00:38:28;18.00;99.90
25504;DHT22;13410;52.114;5.718;2022-09-12T00:40:53;17.90;99.90
25504;DHT22;13410;52.114;5.718;2022-09-12T00:43:36;17.90;99.90
25504;DHT22;13410;52.114;5.718;2022-09-12T00:48:45;17.90;99.90
25504;DHT22;13410;52.114;5.718;2022-09-12T00:51:13;17.90;99.90
25504;DHT22;13410;52.114;5.718;2022-09-12T00:53:41;17.80;99.90
25504;DHT22;13410;52.114;5.718;2022-09-12T00:56:08;17.70;99.90
25504;DHT22;13410;52.114;5.718;2022-09-12T00:59:06;17.60;99.90
25504;DHT22;13410;52.114;5.718;2022-09-12T01:01:30;17.70;99.90
25504;DHT22;13410;52.114;5.718;2022-09-12T01:03:56;17.60;99.90
25504;DHT22;13410;52.114;5.718;2022-09-12T01:06:33;17.60;99.90
25504;DHT22;13410;52.114;5.718;2022-09-12T01:09:00;17.60;99.90
25504;DHT22;13410;52.114;5.718;2022-09-12T01:11:31;17.50;99.90
25504;DHT22;13410;52.114;5.718;2022-09-12T01:13:58;17.60;99.90
25504;DHT22;13410;52.114;5.718;2022-09-12T01:16:24;17.70;99.90
25504;DHT22;13410;52.114;5.718;2022-09-12T01:30:37;17.60;99.90
25504;DHT22;13410;52.114;5.718;2022-09-12T01:36:10;17.60;99.90
25504;DHT22;13410;52.114;5.718;2022-09-12T01:39:03;18.10;99.90
25504;DHT22;13410;52.114;5.718;2022-09-12T01:44:34;18.10;99.90
25504;DHT22;13410;52.114;5.718;2022-09-12T01:47:11;18.10;99.90
25504;DHT22;13410;52.114;5.718;2022-09-12T01:52:19;18.00;99.90
25504;DHT22;13410;52.114;5.718;2022-09-12T01:55:34;18.00;99.90
25504;DHT22;13410;52.114;5.718;2022-09-12T01:58:24;17.80;99.90
25504;DHT22;13410;52.114;5.718;2022-09-12T02:00:32;17.60;99.90
25504;DHT22;13410;52.114;5.718;2022-09-12T02:03:12;17.70;99.90
25504;DHT22;13410;52.114;5.718;2022-09-12T02:05:46;18.00;99.90
25504;DHT22;13410;52.114;5.718;2022-09-12T02:08:19;17.70;99.90
25504;DHT22;13410;52.114;5.718;2022-09-12T02:10:54;17.40;99.90
25504;DHT22;13410;52.114;5.718;2022-09-12T02:16:48;17.90;99.90
25504;DHT22;13410;52.114;5.718;2022-09-12T02:19:17;18.00;99.90
25504;DHT22;13410;52.114;5.718;2022-09-12T02:21:49;17.90;99.90
25504;DHT22;13410;52.114;5.718;2022-09-12T02:24:16;18.00;99.90
25504;DHT22;13410;52.114;5.718;2022-09-12T02:26:47;18.00;99.90
25504;DHT22;13410;52.114;5.718;2022-09-12T02:29:14;17.60;99.90
25504;DHT22;13410;52.114;5.718;2022-09-12T02:31:48;17.70;99.90
25504;DHT22;13410;52.114;5.718;2022-09-12T02:37:11;17.70;99.90
25504;DHT22;13410;52.114;5.718;2022-09-12T02:39:39;17.60;99.90
25504;DHT22;13410;52.114;5.718;2022-09-12T02:42:05;17.50;99.90
25504;DHT22;13410;52.114;5.718;2022-09-12T02:44:33;17.50;99.90
25504;DHT22;13410;52.114;5.718;2022-09-12T02:47:09;17.30;99.90
25504;DHT22;13410;52.114;5.718;2022-09-12T02:49:37;17.30;99.90
25504;DHT22;13410;52.114;5.718;2022-09-12T02:52:03;17.40;99.90
25504;DHT22;13410;52.114;5.718;2022-09-12T02:54:29;17.20;99.90
25504;DHT22;13410;52.114;5.718;2022-09-12T02:56:55;17.20;99.90
25504;DHT22;13410;52.114;5.718;2022-09-12T02:59:22;17.00;99.90
25504;DHT22;13410;52.114;5.718;2022-09-12T03:04:48;16.90;99.90
25504;DHT22;13410;52.114;5.718;2022-09-12T03:07:23;16.90;99.90
25504;DHT22;13410;52.114;5.718;2022-09-12T03:10:13;16.80;99.90
25504;DHT22;13410;52.114;5.718;2022-09-12T03:13:03;16.80;99.90
25504;DHT22;13410;52.114;5.718;2022-09-12T03:15:46;16.90;99.90
25504;DHT22;13410;52.114;5.718;2022-09-12T03:18:22;16.90;99.90
25504;DHT22;13410;52.114;5.718;2022-09-12T03:21:10;17.10;99.90
25504;DHT22;13410;52.114;5.718;2022-09-12T03:23:43;17.00;99.90
25504;DHT22;13410;52.114;5.718;2022-09-12T03:26:57;16.90;99.90
25504;DHT22;13410;52.114;5.718;2022-09-12T03:29:26;16.90;99.90
25504;DHT22;13410;52.114;5.718;2022-09-12T03:31:54;16.90;99.90
25504;DHT22;13410;52.114;5.718;2022-09-12T03:34:21;16.90;99.90
25504;DHT22;13410;52.114;5.718;2022-09-12T03:36:48;17.10;99.90
25504;DHT22;13410;52.114;5.718;2022-09-12T03:39:14;17.00;99.90
25504;DHT22;13410;52.114;5.718;2022-09-12T03:41:40;17.10;99.90
25504;DHT22;13410;52.114;5.718;2022-09-12T03:44:05;16.90;99.90
25504;DHT22;13410;52.114;5.718;2022-09-12T03:46:31;16.90;99.90
25504;DHT22;13410;52.114;5.718;2022-09-12T03:48:56;16.90;99.90
25504;DHT22;13410;52.114;5.718;2022-09-12T03:51:22;17.00;99.90
25504;DHT22;13410;52.114;5.718;2022-09-12T03:53:48;17.30;99.90
25504;DHT22;13410;52.114;5.718;2022-09-12T03:56:14;17.20;99.90
25504;DHT22;13410;52.114;5.718;2022-09-12T03:58:40;16.90;99.90
25504;DHT22;13410;52.114;5.718;2022-09-12T04:01:10;17.10;99.90
25504;DHT22;13410;52.114;5.718;2022-09-12T04:03:48;17.30;99.90
25504;DHT22;13410;52.114;5.718;2022-09-12T04:06:18;17.30;99.90
25504;DHT22;13410;52.114;5.718;2022-09-12T04:08:47;17.40;99.90
25504;DHT22;13410;52.114;5.718;2022-09-12T04:11:14;17.30;99.90
25504;DHT22;13410;52.114;5.718;2022-09-12T04:13:41;17.20;99.90
25504;DHT22;13410;52.114;5.718;2022-09-12T04:16:08;17.10;99.90
25504;DHT22;13410;52.114;5.718;2022-09-12T04:18:34;17.30;99.90
25504;DHT22;13410;52.114;5.718;2022-09-12T04:21:15;17.20;99.90
25504;DHT22;13410;52.114;5.718;2022-09-12T04:23:42;17.20;99.90
25504;DHT22;13410;52.114;5.718;2022-09-12T04:26:08;17.10;99.90
25504;DHT22;13410;52.114;5.718;2022-09-12T04:28:36;17.10;99.90
25504;DHT22;13410;52.114;5.718;2022-09-12T04:31:08;17.40;99.90
25504;DHT22;13410;52.114;5.718;2022-09-12T04:33:34;17.30;99.90
25504;DHT22;13410;52.114;5.718;2022-09-12T04:36:05;17.40;99.90
25504;DHT22;13410;52.114;5.718;2022-09-12T04:38:33;17.00;99.90
25504;DHT22;13410;52.114;5.718;2022-09-12T04:40:59;17.10;99.90
25504;DHT22;13410;52.114;5.718;2022-09-12T04:43:25;17.10;99.90
25504;DHT22;13410;52.114;5.718;2022-09-12T04:45:50;16.90;99.90
25504;DHT22;13410;52.114;5.718;2022-09-12T04:48:16;16.90;99.90
25504;DHT22;13410;52.114;5.718;2022-09-12T04:50:44;16.90;99.90
25504;DHT22;13410;52.114;5.718;2022-09-12T04:53:10;16.90;99.90
25504;DHT22;13410;52.114;5.718;2022-09-12T04:55:36;17.20;99.90
25504;DHT22;13410;52.114;5.718;2022-09-12T04:58:01;17.30;99.90
25504;DHT22;13410;52.114;5.718;2022-09-12T05:00:27;17.40;99.90
25504;DHT22;13410;52.114;5.718;2022-09-12T05:02:53;17.70;99.90
25504;DHT22;13410;52.114;5.718;2022-09-12T05:05:18;17.70;99.90
25504;DHT22;13410;52.114;5.718;2022-09-12T05:07:44;17.50;99.90
25504;DHT22;13410;52.114;5.718;2022-09-12T05:10:10;17.40;99.90
25504;DHT22;13410;52.114;5.718;2022-09-12T05:12:37;17.40;99.90
25504;DHT22;13410;52.114;5.718;2022-09-12T05:15:02;17.50;99.90
25504;DHT22;13410;52.114;5.718;2022-09-12T05:17:29;17.60;99.90
25504;DHT22;13410;52.114;5.718;2022-09-12T05:19:54;17.60;99.90
25504;DHT22;13410;52.114;5.718;2022-09-12T05:22:20;17.60;99.90
25504;DHT22;13410;52.114;5.718;2022-09-12T05:24:45;17.70;99.90
25504;DHT22;13410;52.114;5.718;2022-09-12T05:27:13;17.60;99.90
25504;DHT22;13410;52.114;5.718;2022-09-12T05:29:38;17.50;99.90
25504;DHT22;13410;52.114;5.718;2022-09-12T05:32:04;17.60;99.90
25504;DHT22;13410;52.114;5.718;2022-09-12T05:34:31;17.60;99.90
25504;DHT22;13410;52.114;5.718;2022-09-12T05:36:57;17.70;99.90
25504;DHT22;13410;52.114;5.718;2022-09-12T05:39:25;18.00;99.90
25504;DHT22;13410;52.114;5.718;2022-09-12T05:41:51;18.20;99.90
25504;DHT22;13410;52.114;5.718;2022-09-12T05:44:16;18.30;99.90
25504;DHT22;13410;52.114;5.718;2022-09-12T05:46:44;18.30;99.90
25504;DHT22;13410;52.114;5.718;2022-09-12T05:49:12;18.20;99.90
25504;DHT22;13410;52.114;5.718;2022-09-12T05:51:43;18.10;99.90
25504;DHT22;13410;52.114;5.718;2022-09-12T05:54:10;18.10;99.90
25504;DHT22;13410;52.114;5.718;2022-09-12T05:56:41;18.10;99.90
25504;DHT22;13410;52.114;5.718;2022-09-12T05:59:28;18.30;99.90
25504;DHT22;13410;52.114;5.718;2022-09-12T06:01:54;18.10;99.90
25504;DHT22;13410;52.114;5.718;2022-09-12T06:04:19;18.10;99.90
25504;DHT22;13410;52.114;5.718;2022-09-12T06:06:45;18.10;99.90
25504;DHT22;13410;52.114;5.718;2022-09-12T06:09:13;18.20;99.90
25504;DHT22;13410;52.114;5.718;2022-09-12T06:11:39;18.30;99.90
25504;DHT22;13410;52.114;5.718;2022-09-12T06:14:06;18.40;99.90
25504;DHT22;13410;52.114;5.718;2022-09-12T06:16:34;18.50;99.90
25504;DHT22;13410;52.114;5.718;2022-09-12T06:19:01;18.50;99.90
25504;DHT22;13410;52.114;5.718;2022-09-12T06:21:28;18.40;99.90
25504;DHT22;13410;52.114;5.718;2022-09-12T06:23:56;18.40;99.90
25504;DHT22;13410;52.114;5.718;2022-09-12T06:26:23;18.40;99.90
25504;DHT22;13410;52.114;5.718;2022-09-12T06:28:50;18.50;99.90
25504;DHT22;13410;52.114;5.718;2022-09-12T06:31:22;18.60;99.90
25504;DHT22;13410;52.114;5.718;2022-09-12T06:33:50;18.60;99.90
25504;DHT22;13410;52.114;5.718;2022-09-12T06:36:18;18.70;99.90
25504;DHT22;13410;52.114;5.718;2022-09-12T06:38:45;18.70;99.90
25504;DHT22;13410;52.114;5.718;2022-09-12T06:41:12;18.80;99.90
25504;DHT22;13410;52.114;5.718;2022-09-12T06:43:39;18.80;99.90
25504;DHT22;13410;52.114;5.718;2022-09-12T06:46:05;18.90;99.90
25504;DHT22;13410;52.114;5.718;2022-09-12T06:48:30;19.00;99.90
25504;DHT22;13410;52.114;5.718;2022-09-12T06:51:04;19.00;99.90
25504;DHT22;13410;52.114;5.718;2022-09-12T06:53:31;19.00;99.90
25504;DHT22;13410;52.114;5.718;2022-09-12T06:56:03;19.30;99.90
25504;DHT22;13410;52.114;5.718;2022-09-12T06:58:30;19.40;99.90
25504;DHT22;13410;52.114;5.718;2022-09-12T07:01:06;19.60;99.90
25504;DHT22;13410;52.114;5.718;2022-09-12T07:03:33;20.00;99.90
25504;DHT22;13410;52.114;5.718;2022-09-12T07:08:34;20.50;99.90
25504;DHT22;13410;52.114;5.718;2022-09-12T07:11:15;20.50;99.90
25504;DHT22;13410;52.114;5.718;2022-09-12T07:13:42;20.60;99.90
25504;DHT22;13410;52.114;5.718;2022-09-12T07:16:08;20.60;99.90
25504;DHT22;13410;52.114;5.718;2022-09-12T07:18:36;20.50;99.90
25504;DHT22;13410;52.114;5.718;2022-09-12T07:21:08;20.70;99.90
25504;DHT22;13410;52.114;5.718;2022-09-12T07:23:34;20.80;99.90
25504;DHT22;13410;52.114;5.718;2022-09-12T07:26:00;20.90;99.90
25504;DHT22;13410;52.114;5.718;2022-09-12T07:28:28;21.30;99.90
25504;DHT22;13410;52.114;5.718;2022-09-12T07:30:54;21.60;99.90
25504;DHT22;13410;52.114;5.718;2022-09-12T07:33:21;22.20;99.90
25504;DHT22;13410;52.114;5.718;2022-09-12T07:35:47;22.40;99.90
25504;DHT22;13410;52.114;5.718;2022-09-12T07:38:14;22.60;99.90
25504;DHT22;13410;52.114;5.718;2022-09-12T07:40:40;22.70;99.90
25504;DHT22;13410;52.114;5.718;2022-09-12T07:43:06;22.80;99.90
25504;DHT22;13410;52.114;5.718;2022-09-12T07:45:31;22.80;99.90
25504;DHT22;13410;52.114;5.718;2022-09-12T07:47:57;22.80;99.90
25504;DHT22;13410;52.114;5.718;2022-09-12T07:50:22;22.80;99.90
25504;DHT22;13410;52.114;5.718;2022-09-12T07:52:48;22.80;99.90
25504;DHT22;13410;52.114;5.718;2022-09-12T07:55:14;22.90;99.90
25504;DHT22;13410;52.114;5.718;2022-09-12T07:57:41;22.80;99.90
25504;DHT22;13410;52.114;5.718;2022-09-12T08:00:07;22.90;99.90
25504;DHT22;13410;52.114;5.718;2022-09-12T08:02:33;22.90;99.90
25504;DHT22;13410;52.114;5.718;2022-09-12T08:04:59;23.00;99.90
25504;DHT22;13410;52.114;5.718;2022-09-12T08:07:24;23.10;99.90
25504;DHT22;13410;52.114;5.718;2022-09-12T08:09:50;23.00;99.90
25504;DHT22;13410;52.114;5.718;2022-09-12T08:12:15;23.00;99.90
25504;DHT22;13410;52.114;5.718;2022-09-12T08:14:42;23.20;99.90
25504;DHT22;13410;52.114;5.718;2022-09-12T08:17:08;23.20;99.90
25504;DHT22;13410;52.114;5.718;2022-09-12T08:19:34;23.50;99.90
25504;DHT22;13410;52.114;5.718;2022-09-12T08:21:59;23.50;99.90
25504;DHT22;13410;52.114;5.718;2022-09-12T08:24:25;23.40;99.90
25504;DHT22;13410;52.114;5.718;2022-09-12T08:26:51;23.60;99.90
25504;DHT22;13410;52.114;5.718;2022-09-12T08:29:16;23.60;99.90
25504;DHT22;13410;52.114;5.718;2022-09-12T08:31:42;23.60;99.90
25504;DHT22;13410;52.114;5.718;2022-09-12T08:34:08;23.70;99.90
25504;DHT22;13410;52.114;5.718;2022-09-12T08:36:34;23.70;99.90
25504;DHT22;13410;52.114;5.718;2022-09-12T08:39:05;23.60;99.90
25504;DHT22;13410;52.114;5.718;2022-09-12T08:41:42;23.90;99.90
25504;DHT22;13410;52.114;5.718;2022-09-12T08:49:46;24.50;99.90
25504;DHT22;13410;52.114;5.718;2022-09-12T08:52:18;24.80;99.90
25504;DHT22;13410;52.114;5.718;2022-09-12T08:54:46;24.90;99.90
25504;DHT22;13410;52.114;5.718;2022-09-12T08:57:13;24.90;99.90
25504;DHT22;13410;52.114;5.718;2022-09-12T08:59:44;25.20;99.90
25504;DHT22;13410;52.114;5.718;2022-09-12T09:02:23;25.30;99.90
25504;DHT22;13410;52.114;5.718;2022-09-12T09:04:51;25.40;99.90
25504;DHT22;13410;52.114;5.718;2022-09-12T09:10:02;25.30;99.90
25504;DHT22;13410;52.114;5.718;2022-09-12T09:12:53;25.30;99.90
25504;DHT22;13410;52.114;5.718;2022-09-12T09:15:36;25.10;99.90
25504;DHT22;13410;52.114;5.718;2022-09-12T09:18:08;25.40;99.90
25504;DHT22;13410;52.114;5.718;2022-09-12T09:20:49;25.60;99.90
25504;DHT22;13410;52.114;5.718;2022-09-12T09:23:35;25.80;99.90
25504;DHT22;13410;52.114;5.718;2022-09-12T09:26:04;25.90;99.90
25504;DHT22;13410;52.114;5.718;2022-09-12T09:28:38;25.90;99.90
25504;DHT22;13410;52.114;5.718;2022-09-12T09:31:15;25.80;99.90
25504;DHT22;13410;52.114;5.718;2022-09-12T09:33:47;25.80;99.90
25504;DHT22;13410;52.114;5.718;2022-09-12T09:36:21;26.10;99.90
25504;DHT22;13410;52.114;5.718;2022-09-12T09:41:44;26.00;99.90
25504;DHT22;13410;52.114;5.718;2022-09-12T09:44:14;26.00;99.90
25504;DHT22;13410;52.114;5.718;2022-09-12T09:46:40;26.10;99.90
25504;DHT22;13410;52.114;5.718;2022-09-12T09:49:10;26.50;99.90
25504;DHT22;13410;52.114;5.718;2022-09-12T09:51:41;26.70;99.90
25504;DHT22;13410;52.114;5.718;2022-09-12T09:54:20;26.60;99.90
25504;DHT22;13410;52.114;5.718;2022-09-12T09:56:47;26.90;99.90
25504;DHT22;13410;52.114;5.718;2022-09-12T09:59:30;26.90;99.90
25504;DHT22;13410;52.114;5.718;2022-09-12T10:04:40;27.20;99.90
25504;DHT22;13410;52.114;5.718;2022-09-12T10:07:10;27.40;99.90
25504;DHT22;13410;52.114;5.718;2022-09-12T10:10:03;27.40;99.90
25504;DHT22;13410;52.114;5.718;2022-09-12T10:12:29;27.50;99.90
25504;DHT22;13410;52.114;5.718;2022-09-12T10:14:59;27.60;99.90
25504;DHT22;13410;52.114;5.718;2022-09-12T10:17:28;27.60;99.90
25504;DHT22;13410;52.114;5.718;2022-09-12T10:19:55;27.70;99.90
25504;DHT22;13410;52.114;5.718;2022-09-12T10:22:26;27.80;99.90
25504;DHT22;13410;52.114;5.718;2022-09-12T10:24:58;27.80;99.90
25504;DHT22;13410;52.114;5.718;2022-09-12T10:27:29;27.90;99.90
25504;DHT22;13410;52.114;5.718;2022-09-12T10:30:01;28.10;99.90
25504;DHT22;13410;52.114;5.718;2022-09-12T10:32:45;28.10;99.90
25504;DHT22;13410;52.114;5.718;2022-09-12T10:35:17;28.20;99.90
25504;DHT22;13410;52.114;5.718;2022-09-12T10:40:24;28.40;99.90
25504;DHT22;13410;52.114;5.718;2022-09-12T10:42:55;28.40;99.90
25504;DHT22;13410;52.114;5.718;2022-09-12T10:47:51;28.60;99.90
25504;DHT22;13410;52.114;5.718;2022-09-12T10:50:40;28.60;99.90
25504;DHT22;13410;52.114;5.718;2022-09-12T10:53:21;28.60;99.90
25504;DHT22;13410;52.114;5.718;2022-09-12T10:58:39;28.30;99.90
25504;DHT22;13410;52.114;5.718;2022-09-12T11:01:32;28.30;99.90
25504;DHT22;13410;52.114;5.718;2022-09-12T11:04:13;28.40;99.90
25504;DHT22;13410;52.114;5.718;2022-09-12T11:09:39;28.20;99.90
25504;DHT22;13410;52.114;5.718;2022-09-12T11:20:52;28.70;99.90
25504;DHT22;13410;52.114;5.718;2022-09-12T11:26:23;29.00;99.90
25504;DHT22;13410;52.114;5.718;2022-09-12T11:29:00;29.10;99.90
25504;DHT22;13410;52.114;5.718;2022-09-12T11:34:08;29.10;99.90
25504;DHT22;13410;52.114;5.718;2022-09-12T11:39:34;29.30;99.90
25504;DHT22;13410;52.114;5.718;2022-09-12T11:42:03;29.30;99.90
25504;DHT22;13410;52.114;5.718;2022-09-12T11:44:39;29.40;99.90
25504;DHT22;13410;52.114;5.718;2022-09-12T11:47:10;29.30;99.90
25504;DHT22;13410;52.114;5.718;2022-09-12T11:49:44;29.40;99.90
25504;DHT22;13410;52.114;5.718;2022-09-12T11:52:19;29.60;99.90
25504;DHT22;13410;52.114;5.718;2022-09-12T11:57:48;29.70;99.90
25504;DHT22;13410;52.114;5.718;2022-09-12T12:00:23;29.70;99.90
25504;DHT22;13410;52.114;5.718;2022-09-12T12:08:22;30.10;99.90
25504;DHT22;13410;52.114;5.718;2022-09-12T12:10:58;30.10;99.90
25504;DHT22;13410;52.114;5.718;2022-09-12T12:18:44;29.90;99.90
25504;DHT22;13410;52.114;5.718;2022-09-12T12:21:30;29.70;99.90
25504;DHT22;13410;52.114;5.718;2022-09-12T12:29:04;29.80;99.90
25504;DHT22;13410;52.114;5.718;2022-09-12T12:31:30;30.00;99.90
25504;DHT22;13410;52.114;5.718;2022-09-12T12:34:21;29.90;99.90
25504;DHT22;13410;52.114;5.718;2022-09-12T12:36:48;29.90;99.90
25504;DHT22;13410;52.114;5.718;2022-09-12T12:42:01;29.00;99.90
25504;DHT22;13410;52.114;5.718;2022-09-12T12:47:31;28.70;99.90
25504;DHT22;13410;52.114;5.718;2022-09-12T12:50:02;28.90;99.90
25504;DHT22;13410;52.114;5.718;2022-09-12T12:52:31;29.20;99.90
25504;DHT22;13410;52.114;5.718;2022-09-12T12:55:00;29.60;99.90
25504;DHT22;13410;52.114;5.718;2022-09-12T12:57:50;29.60;99.90
25504;DHT22;13410;52.114;5.718;2022-09-12T13:03:07;30.00;99.90
25504;DHT22;13410;52.114;5.718;2022-09-12T13:06:00;30.20;99.90
25504;DHT22;13410;52.114;5.718;2022-09-12T13:08:32;30.20;99.90
25504;DHT22;13410;52.114;5.718;2022-09-12T13:11:27;30.50;99.90
25504;DHT22;13410;52.114;5.718;2022-09-12T13:14:02;30.50;99.90
25504;DHT22;13410;52.114;5.718;2022-09-12T13:18:56;30.50;99.90
25504;DHT22;13410;52.114;5.718;2022-09-12T13:21:25;30.60;99.90
25504;DHT22;13410;52.114;5.718;2022-09-12T13:23:59;30.30;99.90
25504;DHT22;13410;52.114;5.718;2022-09-12T13:26:27;30.30;99.90
25504;DHT22;13410;52.114;5.718;2022-09-12T13:29:19;30.20;99.90
25504;DHT22;13410;52.114;5.718;2022-09-12T13:31:47;30.10;99.90
25504;DHT22;13410;52.114;5.718;2022-09-12T13:34:23;30.20;99.90
25504;DHT22;13410;52.114;5.718;2022-09-12T13:39:49;30.50;99.90
25504;DHT22;13410;52.114;5.718;2022-09-12T13:42:48;30.40;99.90
25504;DHT22;13410;52.114;5.718;2022-09-12T13:45:25;30.20;99.90
25504;DHT22;13410;52.114;5.718;2022-09-12T13:47:58;29.60;99.90
25504;DHT22;13410;52.114;5.718;2022-09-12T13:50:32;29.30;99.90
25504;DHT22;13410;52.114;5.718;2022-09-12T13:53:04;29.40;99.90
25504;DHT22;13410;52.114;5.718;2022-09-12T13:55:32;29.60;99.90
25504;DHT22;13410;52.114;5.718;2022-09-12T13:58:22;29.80;99.90
25504;DHT22;13410;52.114;5.718;2022-09-12T14:03:42;29.60;99.90
25504;DHT22;13410;52.114;5.718;2022-09-12T14:06:48;29.90;99.90
25504;DHT22;13410;52.114;5.718;2022-09-12T14:09:25;29.90;99.90
25504;DHT22;13410;52.114;5.718;2022-09-12T14:11:53;29.80;99.90
25504;DHT22;13410;52.114;5.718;2022-09-12T14:14:33;29.80;99.90
25504;DHT22;13410;52.114;5.718;2022-09-12T14:17:00;29.80;99.90
25504;DHT22;13410;52.114;5.718;2022-09-12T14:19:26;29.80;99.90
25504;DHT22;13410;52.114;5.718;2022-09-12T14:21:54;29.90;99.90
25504;DHT22;13410;52.114;5.718;2022-09-12T14:24:20;30.10;99.90
25504;DHT22;13410;52.114;5.718;2022-09-12T14:26:48;30.30;99.90
25504;DHT22;13410;52.114;5.718;2022-09-12T14:29:15;30.30;99.90
25504;DHT22;13410;52.114;5.718;2022-09-12T14:31:42;30.50;99.90
25504;DHT22;13410;52.114;5.718;2022-09-12T14:34:14;30.50;99.90
25504;DHT22;13410;52.114;5.718;2022-09-12T14:36:46;30.50;99.90
25504;DHT22;13410;52.114;5.718;2022-09-12T14:39:20;30.40;99.90
25504;DHT22;13410;52.114;5.718;2022-09-12T14:41:47;30.30;99.90
25504;DHT22;13410;52.114;5.718;2022-09-12T14:44:18;30.20;99.90
25504;DHT22;13410;52.114;5.718;2022-09-12T14:46:46;30.00;99.90
25504;DHT22;13410;52.114;5.718;2022-09-12T14:49:19;30.00;99.90
25504;DHT22;13410;52.114;5.718;2022-09-12T14:56:59;30.20;99.90
25504;DHT22;13410;52.114;5.718;2022-09-12T15:05:15;30.30;99.90
25504;DHT22;13410;52.114;5.718;2022-09-12T15:15:35;30.70;99.90
25504;DHT22;13410;52.114;5.718;2022-09-12T15:18:01;30.40;99.90
25504;DHT22;13410;52.114;5.718;2022-09-12T15:20:27;30.30;99.90
25504;DHT22;13410;52.114;5.718;2022-09-12T15:22:52;30.40;99.90
25504;DHT22;13410;52.114;5.718;2022-09-12T15:25:18;30.40;99.90
25504;DHT22;13410;52.114;5.718;2022-09-12T15:27:49;30.50;99.90
25504;DHT22;13410;52.114;5.718;2022-09-12T15:30:16;30.50;99.90
25504;DHT22;13410;52.114;5.718;2022-09-12T15:32:43;30.20;99.90
25504;DHT22;13410;52.114;5.718;2022-09-12T15:35:20;30.10;99.90
25504;DHT22;13410;52.114;5.718;2022-09-12T15:37:47;30.00;99.90
25504;DHT22;13410;52.114;5.718;2022-09-12T15:40:14;29.70;99.90
25504;DHT22;13410;52.114;5.718;2022-09-12T15:42:40;29.60;99.90
25504;DHT22;13410;52.114;5.718;2022-09-12T15:45:18;29.60;99.90
25504;DHT22;13410;52.114;5.718;2022-09-12T15:47:46;29.50;99.90
25504;DHT22;13410;52.114;5.718;2022-09-12T15:50:14;29.50;99.90
25504;DHT22;13410;52.114;5.718;2022-09-12T15:52:40;29.20;99.90
25504;DHT22;13410;52.114;5.718;2022-09-12T15:55:15;29.00;99.90
25504;DHT22;13410;52.114;5.718;2022-09-12T15:57:42;28.90;99.90
25504;DHT22;13410;52.114;5.718;2022-09-12T16:00:08;29.00;99.90
25504;DHT22;13410;52.114;5.718;2022-09-12T16:02:34;28.90;99.90
25504;DHT22;13410;52.114;5.718;2022-09-12T16:05:00;28.90;99.90
25504;DHT22;13410;52.114;5.718;2022-09-12T16:07:25;29.00;99.90
25504;DHT22;13410;52.114;5.718;2022-09-12T16:09:51;28.90;99.90
25504;DHT22;13410;52.114;5.718;2022-09-12T16:12:17;29.10;99.90
25504;DHT22;13410;52.114;5.718;2022-09-12T16:14:42;29.00;99.90
25504;DHT22;13410;52.114;5.718;2022-09-12T16:17:09;29.10;99.90
25504;DHT22;13410;52.114;5.718;2022-09-12T16:19:35;29.10;99.90
25504;DHT22;13410;52.114;5.718;2022-09-12T16:22:00;29.20;99.90
25504;DHT22;13410;52.114;5.718;2022-09-12T16:24:26;29.40;99.90
25504;DHT22;13410;52.114;5.718;2022-09-12T16:26:51;29.40;99.90
25504;DHT22;13410;52.114;5.718;2022-09-12T16:29:17;29.50;99.90
25504;DHT22;13410;52.114;5.718;2022-09-12T16:31:42;29.60;99.90
25504;DHT22;13410;52.114;5.718;2022-09-12T16:34:09;29.40;99.90
25504;DHT22;13410;52.114;5.718;2022-09-12T16:36:35;29.40;99.90
25504;DHT22;13410;52.114;5.718;2022-09-12T16:39:01;29.40;99.90
25504;DHT22;13410;52.114;5.718;2022-09-12T16:41:30;29.40;99.90
25504;DHT22;13410;52.114;5.718;2022-09-12T16:43:55;29.10;99.90
25504;DHT22;13410;52.114;5.718;2022-09-12T16:46:26;29.00;99.90
25504;DHT22;13410;52.114;5.718;2022-09-12T16:48:56;29.00;99.90
25504;DHT22;13410;52.114;5.718;2022-09-12T16:51:28;29.10;99.90
25504;DHT22;13410;52.114;5.718;2022-09-12T16:53:55;28.90;99.90
25504;DHT22;13410;52.114;5.718;2022-09-12T16:56:21;28.80;99.90
25504;DHT22;13410;52.114;5.718;2022-09-12T16:58:47;28.70;99.90
25504;DHT22;13410;52.114;5.718;2022-09-12T17:01:15;28.60;99.90
25504;DHT22;13410;52.114;5.718;2022-09-12T17:03:41;28.40;99.90
25504;DHT22;13410;52.114;5.718;2022-09-12T17:06:13;28.30;99.90
25504;DHT22;13410;52.114;5.718;2022-09-12T17:08:41;28.20;99.90
25504;DHT22;13410;52.114;5.718;2022-09-12T17:11:19;28.20;99.90
25504;DHT22;13410;52.114;5.718;2022-09-12T17:13:53;28.10;99.90
25504;DHT22;13410;52.114;5.718;2022-09-12T17:16:20;28.20;99.90
25504;DHT22;13410;52.114;5.718;2022-09-12T17:18:46;28.10;99.90
25504;DHT22;13410;52.114;5.718;2022-09-12T17:21:12;28.20;99.90
25504;DHT22;13410;52.114;5.718;2022-09-12T17:23:38;28.00;99.90
25504;DHT22;13410;52.114;5.718;2022-09-12T17:26:04;28.00;99.90
25504;DHT22;13410;52.114;5.718;2022-09-12T17:28:30;27.70;99.90
25504;DHT22;13410;52.114;5.718;2022-09-12T17:30:59;27.70;99.90
25504;DHT22;13410;52.114;5.718;2022-09-12T17:33:25;27.70;99.90
25504;DHT22;13410;52.114;5.718;2022-09-12T17:35:51;27.60;99.90
25504;DHT22;13410;52.114;5.718;2022-09-12T17:38:18;27.40;99.90
25504;DHT22;13410;52.114;5.718;2022-09-12T17:40:43;27.30;99.90
25504;DHT22;13410;52.114;5.718;2022-09-12T17:43:13;27.20;99.90
25504;DHT22;13410;52.114;5.718;2022-09-12T17:45:39;27.20;99.90
25504;DHT22;13410;52.114;5.718;2022-09-12T17:48:06;27.10;99.90
25504;DHT22;13410;52.114;5.718;2022-09-12T17:50:38;27.10;99.90
25504;DHT22;13410;52.114;5.718;2022-09-12T17:53:05;27.10;99.90
25504;DHT22;13410;52.114;5.718;2022-09-12T17:55:35;27.00;99.90
25504;DHT22;13410;52.114;5.718;2022-09-12T17:58:01;27.00;99.90
25504;DHT22;13410;52.114;5.718;2022-09-12T18:00:28;27.00;99.90